Flight Track Log - Related Links

Times and Time Zones

All times are in EDT time to prevent confusion due to time zone crossing. See the ARG1502 flight status page for this flight to view local times or setup timezone preferences in your user account.

Time Position Orientation Groundspeed Altitude Reporting Facility
EDT Latitude Longitude Course Direction KTS MPH feet Rate Location/Type
Tue 07:36:17 AM -34.5600 -58.3700 109° East 226 260 1,800  Level FlightAware ADS-B
Tue 07:36:31 AM -34.5480 -58.3600 34° Northeast 228 262 2,700 3,081 Climbing FlightAware ADS-B
Tue 07:36:54 AM -34.5270 -58.3430 34° Northeast 259 298 3,700 2,286 Climbing FlightAware ADS-B
Tue 07:37:13 AM -34.5060 -58.3260 34° Northeast 295 339 4,300 2,057 Climbing FlightAware ADS-B
Tue 07:37:29 AM -34.4850 -58.3140 25° Northeast 323 372 4,900 2,000 Climbing FlightAware ADS-B
Tue 07:37:37 AM -34.4730 -58.3110 12° North 335 386 5,100 1,846 Climbing FlightAware ADS-B
Tue 07:37:42 AM -34.4660 -58.3100 North 340 391 5,300 3,214 Climbing FlightAware ADS-B
Tue 07:38:05 AM -34.4300 -58.3220 345° North 346 398 6,600 3,512 Climbing FlightAware ADS-B
Tue 07:38:23 AM -34.4060 -58.3400 328° Northwest 350 403 7,700 3,882 Climbing FlightAware ADS-B
Tue 07:38:39 AM -34.3840 -58.3570 327° Northwest 353 406 8,800 3,692 Climbing FlightAware ADS-B
Tue 07:39:15 AM -34.3350 -58.3980 325° Northwest 365 420 10,900 3,321 Climbing FlightAware ADS-B
Tue 07:39:35 AM -34.3110 -58.4280 314° West 372 428 11,900 3,283 Climbing FlightAware ADS-B
Tue 07:40:08 AM -34.2790 -58.4820 306° West 373 429 13,800 3,478 Climbing FlightAware ADS-B
Tue 07:40:44 AM -34.2430 -58.5440 305° West 379 436 15,900 3,803 Climbing FlightAware ADS-B
Tue 07:41:19 AM -34.2070 -58.6050 306° West 374 430 18,300 3,718 Climbing FlightAware ADS-B
Tue 07:41:55 AM -34.1710 -58.6660 305° West 376 433 20,300 3,042 Climbing FlightAware ADS-B
Tue 07:42:30 AM -34.1360 -58.7270 305° West 382 440 21,900 2,583 Climbing FlightAware ADS-B
Tue 07:43:07 AM -34.0970 -58.7930 305° West 395 455 23,400 1,853 Climbing FlightAware ADS-B
Tue 07:43:38 AM -34.0640 -58.8500 305° West 415 478 24,000 563 Climbing FlightAware ADS-B
Tue 07:44:11 AM -34.0270 -58.9140 305° West 425 489 24,000  Level FlightAware ADS-B
Tue 07:44:52 AM -33.9800 -58.9930 306° West 425 489 24,000  Level FlightAware ADS-B
Tue 07:45:26 AM -33.9420 -59.0590 305° West 426 490 24,000  Level FlightAware ADS-B
Tue 07:45:59 AM -33.9040 -59.1230 306° West 426 490 24,000  Level FlightAware ADS-B
Tue 07:46:34 AM -33.8650 -59.1900 305° West 426 490 24,000  Level FlightAware ADS-B
Tue 07:47:11 AM -33.8220 -59.2630 305° West 433 498 24,000  Level FlightAware ADS-B
Tue 07:47:42 AM -33.7860 -59.3230 306° West 437 503 24,000  Level FlightAware ADS-B
Tue 07:48:19 AM -33.7420 -59.3980 305° West 439 505 24,000  Level FlightAware ADS-B
Tue 07:48:55 AM -33.7000 -59.4680 306° West 440 506 24,000  Level FlightAware ADS-B
Tue 07:49:31 AM -33.6570 -59.5400 306° West 442 509 24,000  Level FlightAware ADS-B
Tue 07:50:02 AM -33.6200 -59.6010 306° West 443 510 24,000  Level FlightAware ADS-B
Tue 07:50:42 AM -33.5720 -59.6820 305° West 441 507 24,000  Level FlightAware ADS-B
Tue 07:51:12 AM -33.5370 -59.7410 305° West 437 503 24,000  Level FlightAware ADS-B
Tue 07:51:50 AM -33.4920 -59.8160 306° West 437 503 24,000  Level FlightAware ADS-B
Tue 07:52:26 AM -33.4500 -59.8860 306° West 437 503 24,000  Level FlightAware ADS-B
Tue 07:53:00 AM -33.4100 -59.9530 306° West 438 504 24,000  Level FlightAware ADS-B
Tue 07:53:31 AM -33.3730 -60.0130 306° West 436 502 24,000  Level FlightAware ADS-B
Tue 07:54:09 AM -33.3360 -60.0770 305° West 436 502 24,000  Level FlightAware ADS-B
Tue 07:54:45 AM -33.3000 -60.1380 305° West 436 502 24,000  Level FlightAware ADS-B
Tue 07:55:21 AM -33.2650 -60.1980 305° West 436 502 24,000  Level FlightAware ADS-B
Tue 07:56:05 AM -33.1970 -60.3050 307° West 431 496 24,000  Level FlightAware ADS-B
Tue 07:56:41 AM -33.1620 -60.3650 305° West 431 496 24,000  Level FlightAware ADS-B
Tue 07:57:15 AM -33.1290 -60.4210 305° West 431 496 24,000  Level FlightAware ADS-B
Tue 07:57:51 AM -33.0940 -60.4810 305° West 431 496 24,000  Level FlightAware ADS-B
Tue 07:58:27 AM -33.0590 -60.5400 305° West 431 496 24,000  Level FlightAware ADS-B
Tue 07:59:03 AM -33.0240 -60.6000 305° West 431 496 24,000  Level FlightAware ADS-B
Tue 08:01:00 AM -32.9386 -60.7900 298° West  Level Estimated
Tue 08:02:00 AM -32.8947 -60.8872 298° West  Level Estimated
Tue 08:03:00 AM -32.8507 -60.9844 298° West  Level Estimated
Tue 08:04:00 AM -32.8066 -61.0815 298° West  Level Estimated
Tue 08:05:00 AM -32.7625 -61.1785 298° West  Level Estimated
Tue 08:06:00 AM -32.7183 -61.2753 298° West  Level Estimated
Tue 08:07:00 AM -32.6740 -61.3721 299° West  Level Estimated
Tue 08:08:00 AM -32.6297 -61.4688 299° West  Level Estimated
Tue 08:09:00 AM -32.5852 -61.5654 299° West  Level Estimated
Tue 08:09:47 AM -32.1760 -61.8200 299° West 433 498 24,000  Level FlightAware ADS-B
Tue 08:10:23 AM -32.1310 -61.8890 308° West 433 498 24,000  Level FlightAware ADS-B
Tue 08:10:51 AM -32.1060 -61.9460 297° West 433 498 24,000  Level FlightAware ADS-B
Tue 08:11:33 AM -32.0790 -62.0270 291° West 433 498 24,000  Level FlightAware ADS-B
Tue 08:12:10 AM -32.0480 -62.1150 293° West 430 495 24,000  Level FlightAware ADS-B
Tue 08:12:40 AM -32.0250 -62.1840 291° West 430 495 24,000  Level FlightAware ADS-B
Tue 08:13:18 AM -31.9970 -62.2670 292° West 429 494 24,000  Level FlightAware ADS-B
Tue 08:13:54 AM -31.9700 -62.3440 292° West 427 491 24,000  Level FlightAware ADS-B
Tue 08:14:30 AM -31.9440 -62.4200 292° West 408 470 24,000  Level FlightAware ADS-B
Tue 08:15:02 AM -31.9210 -62.4870 292° West 407 468 24,000  Level FlightAware ADS-B
Tue 08:15:36 AM -31.8970 -62.5560 292° West 406 467 24,000  Level FlightAware ADS-B
Tue 08:16:10 AM -31.8740 -62.6220 292° West 407 468 24,000  Level FlightAware ADS-B
Tue 08:16:50 AM -31.8450 -62.7080 292° West 407 468 24,000  Level FlightAware ADS-B
Tue 08:17:22 AM -31.8220 -62.7740 292° West 407 468 24,000  Level FlightAware ADS-B
Tue 08:17:58 AM -31.7960 -62.8470 293° West 409 471 24,000  Level FlightAware ADS-B
Tue 08:18:30 AM -31.7730 -62.9120 293° West 415 478 24,000 -353 Level FlightAware ADS-B
Tue 08:19:06 AM -31.7460 -62.9900 292° West 414 476 23,600 -811 Descending FlightAware ADS-B
Tue 08:19:44 AM -31.7190 -63.0670 292° West 410 472 23,000 -1,151 Descending FlightAware ADS-B
Tue 08:20:19 AM -31.6940 -63.1380 292° West 408 470 22,200 -1,971 Descending FlightAware ADS-B
Tue 08:20:54 AM -31.6690 -63.2090 292° West 400 460 20,700 -2,647 Descending FlightAware ADS-B
Tue 08:21:27 AM -31.6460 -63.2750 292° West 393 452 19,200 -2,909 Descending FlightAware ADS-B
Tue 08:22:00 AM -31.6230 -63.3410 292° West 390 449 17,500 -3,478 Descending FlightAware ADS-B
Tue 08:22:36 AM -31.5980 -63.4120 292° West 398 458 15,200 -2,838 Descending FlightAware ADS-B
Tue 08:23:14 AM -31.5710 -63.4850 293° West 378 435 14,000 -2,189 Descending FlightAware ADS-B
Tue 08:23:50 AM -31.5470 -63.5530 292° West 369 425 12,500 -2,545 Descending FlightAware ADS-B
Tue 08:24:20 AM -31.5280 -63.6070 292° West 363 418 11,200 -2,644 Descending FlightAware ADS-B
Tue 08:24:49 AM -31.5100 -63.6590 292° West 362 417 9,900 -2,667 Descending FlightAware ADS-B
Tue 08:25:14 AM -31.4930 -63.7050 293° West 359 413 8,800 -2,800 Descending FlightAware ADS-B
Tue 08:25:34 AM -31.4800 -63.7410 293° West 361 415 7,800 -2,550 Descending FlightAware ADS-B
Tue 08:25:54 AM -31.4670 -63.7770 293° West 354 407 7,100 -2,294 Descending FlightAware ADS-B
Tue 08:26:08 AM -31.4590 -63.8020 291° West 351 404 6,500 -2,471 Descending FlightAware ADS-B
Tue 08:26:28 AM -31.4470 -63.8370 292° West 348 400 5,700 -2,286 Descending FlightAware ADS-B
Tue 08:26:50 AM -31.4400 -63.8760 282° West 348 400 4,900 -2,053 Descending FlightAware ADS-B
Tue 08:27:06 AM -31.4370 -63.9070 276° West 341 392 4,400 -1,167 Descending FlightAware ADS-B
Tue 08:27:26 AM -31.4340 -63.9430 276° West 319 367 4,200 -750 Descending FlightAware ADS-B
Tue 08:27:46 AM -31.4300 -63.9760 278° West 306 352 3,900 -600 Descending FlightAware ADS-B
Tue 08:28:06 AM -31.4250 -64.0070 281° West 287 330 3,800 -558 Descending FlightAware ADS-B
Tue 08:28:29 AM -31.4180 -64.0420 283° West 271 312 3,500 -698 Descending FlightAware ADS-B
Tue 08:28:49 AM -31.4140 -64.0690 280° West 261 300 3,300 -375 Descending FlightAware ADS-B
Tue 08:29:01 AM -31.4120 -64.0860 278° West 252 290 3,300  Level FlightAware ADS-B
Tue 08:29:23 AM -31.4090 -64.1140 277° West 228 262 3,300 -130 Level FlightAware ADS-B
Tue 08:29:47 AM -31.4060 -64.1410 277° West 202 232 3,200 -286 Descending FlightAware ADS-B
Tue 08:30:05 AM -31.4040 -64.1610 277° West 187 215 3,100 -450 Descending FlightAware ADS-B
Tue 08:30:27 AM -31.4020 -64.1810 277° West 168 193 2,900 -632 Descending FlightAware ADS-B
Tue 08:30:43 AM -31.3990 -64.1950 284° West 161 185 2,700 -857 Descending FlightAware ADS-B
Tue 08:30:55 AM -31.3930 -64.2020 315° West 155 178 2,500 -900 Descending FlightAware ADS-B
Tue 08:31:03 AM -31.3870 -64.2050 337° Northwest 147 169 2,400 -375 Descending FlightAware ADS-B
Tue 08:31:11 AM -31.3820 -64.2060 350° North 139 160 2,400 -643 Level FlightAware ADS-B
Tue 08:31:31 AM -31.3700 -64.2070 356° North 137 158 2,100 -789 Descending FlightAware ADS-B
Tue 08:31:49 AM -31.3590 -64.2080 356° North 141 162 1,900 -769 Descending FlightAware ADS-B
Tue 08:32:10 AM -31.3440 -64.2080 360° North 145 167 1,600 -652 Descending FlightAware ADS-B
Tue 08:32:35 AM -31.3270 -64.2080 360° North 149 171 1,400 -480 Descending FlightAware ADS-B
Tue 08:32:56 AM -31.3140 -64.2080 360° North 110 127 -4,000 Descending FlightAware ADS-B

Login

Don't have an account? Register now (free) for customized features, flight alerts, and more!